sensor_id;sensor_type;location;lat;lon;timestamp;pressure;altitude;pressure_sealevel;temperature;humidity
61880;BME280;47817;52.798;27.544;2023-02-23T00:01:57;1030.5;;;-4.7;66.1
61880;BME280;47817;52.798;27.544;2023-02-23T00:06:31;1030.6;;;-4.7;66
61880;BME280;47817;52.798;27.544;2023-02-23T00:11:44;1030.6;;;-4.7;66.1
61880;BME280;47817;52.798;27.544;2023-02-23T00:16:11;1030.6;;;-4.8;66.1
61880;BME280;47817;52.798;27.544;2023-02-23T00:21:44;1030.7;;;-4.8;66
61880;BME280;47817;52.798;27.544;2023-02-23T00:26:10;1030.7;;;-4.9;66.1
61880;BME280;47817;52.798;27.544;2023-02-23T00:31:10;1030.7;;;-4.9;66.3
61880;BME280;47817;52.798;27.544;2023-02-23T00:36:58;1030.7;;;-4.9;66.4
61880;BME280;47817;52.798;27.544;2023-02-23T00:41:11;1030.8;;;-4.9;66.3
61880;BME280;47817;52.798;27.544;2023-02-23T00:46:46;1030.8;;;-5;66.4
61880;BME280;47817;52.798;27.544;2023-02-23T00:51:58;1030.9;;;-5;66.7
61880;BME280;47817;52.798;27.544;2023-02-23T00:56:11;1030.9;;;-5;66.7
61880;BME280;47817;52.798;27.544;2023-02-23T01:01:43;1030.9;;;-5.1;66.8
61880;BME280;47817;52.798;27.544;2023-02-23T01:06:21;1030.9;;;-5.1;67
61880;BME280;47817;52.798;27.544;2023-02-23T01:11:44;1030.8;;;-5.2;67.2
61880;BME280;47817;52.798;27.544;2023-02-23T01:16:58;1030.8;;;-5.3;67.2
61880;BME280;47817;52.798;27.544;2023-02-23T01:21:13;1030.8;;;-5.4;67.2
61880;BME280;47817;52.798;27.544;2023-02-23T01:26:58;1030.8;;;-5.4;67.1
61880;BME280;47817;52.798;27.544;2023-02-23T01:31:30;1030.8;;;-5.4;67
61880;BME280;47817;52.798;27.544;2023-02-23T01:36:44;1030.8;;;-5.5;66.9
61880;BME280;47817;52.798;27.544;2023-02-23T01:41:58;1030.9;;;-5.5;66.9
61880;BME280;47817;52.798;27.544;2023-02-23T01:46:35;1030.9;;;-5.5;66.8
61880;BME280;47817;52.798;27.544;2023-02-23T01:51:59;1030.9;;;-5.6;66.9
61880;BME280;47817;52.798;27.544;2023-02-23T01:56:21;1030.9;;;-5.6;67
61880;BME280;47817;52.798;27.544;2023-02-23T02:01:44;1030.9;;;-5.7;66.7
61880;BME280;47817;52.798;27.544;2023-02-23T02:06:58;1031;;;-5.7;66.4
61880;BME280;47817;52.798;27.544;2023-02-23T02:11:35;1031;;;-5.7;66.5
61880;BME280;47817;52.798;27.544;2023-02-23T02:17:00;1031;;;-5.7;66.2
61880;BME280;47817;52.798;27.544;2023-02-23T02:21:48;1031.1;;;-5.7;66
61880;BME280;47817;52.798;27.544;2023-02-23T02:26:48;1031.1;;;-5.8;65.9
61880;BME280;47817;52.798;27.544;2023-02-23T02:32:03;1031.1;;;-5.8;66
61880;BME280;47817;52.798;27.544;2023-02-23T02:36:26;1031.2;;;-5.8;66
61880;BME280;47817;52.798;27.544;2023-02-23T02:42:00;1031.3;;;-5.8;66
61880;BME280;47817;52.798;27.544;2023-02-23T02:46:22;1031.3;;;-5.8;66
61880;BME280;47817;52.798;27.544;2023-02-23T02:51:45;1031.3;;;-5.9;66
61880;BME280;47817;52.798;27.544;2023-02-23T02:56:59;1031.4;;;-5.9;66
61880;BME280;47817;52.798;27.544;2023-02-23T03:01:32;1031.4;;;-5.9;66
61880;BME280;47817;52.798;27.544;2023-02-23T03:06:58;1031.5;;;-5.9;66.1
61880;BME280;47817;52.798;27.544;2023-02-23T03:11:20;1031.5;;;-5.9;66.1
61880;BME280;47817;52.798;27.544;2023-02-23T03:16:33;1031.6;;;-6;66
61880;BME280;47817;52.798;27.544;2023-02-23T03:21:58;1031.6;;;-6;66
61880;BME280;47817;52.798;27.544;2023-02-23T03:26:35;1031.6;;;-6;66
61880;BME280;47817;52.798;27.544;2023-02-23T03:31:58;1031.7;;;-6.1;66
61880;BME280;47817;52.798;27.544;2023-02-23T03:36:22;1031.7;;;-6.1;66
61880;BME280;47817;52.798;27.544;2023-02-23T03:41:30;1031.7;;;-6.1;66.2
61880;BME280;47817;52.798;27.544;2023-02-23T03:46:54;1031.7;;;-6.1;66.2
61880;BME280;47817;52.798;27.544;2023-02-23T03:51:23;1031.6;;;-6.2;66.1
61880;BME280;47817;52.798;27.544;2023-02-23T03:56:57;1031.6;;;-6.2;66.3
61880;BME280;47817;52.798;27.544;2023-02-23T04:01:10;1031.6;;;-6.2;66.4
61880;BME280;47817;52.798;27.544;2023-02-23T04:06:45;1031.7;;;-6.2;66.5
61880;BME280;47817;52.798;27.544;2023-02-23T04:11:57;1031.7;;;-6.2;66.6
61880;BME280;47817;52.798;27.544;2023-02-23T04:16:46;1031.7;;;-6.3;66.6
61880;BME280;47817;52.798;27.544;2023-02-23T04:21:58;1031.7;;;-6.3;66.7
61880;BME280;47817;52.798;27.544;2023-02-23T04:26:20;1031.8;;;-6.3;66.7
61880;BME280;47817;52.798;27.544;2023-02-23T04:31:30;1031.8;;;-6.3;66.8
61880;BME280;47817;52.798;27.544;2023-02-23T04:36:22;1031.8;;;-6.3;66.8
61880;BME280;47817;52.798;27.544;2023-02-23T04:41:58;1031.8;;;-6.3;66.9
61880;BME280;47817;52.798;27.544;2023-02-23T04:46:34;1031.8;;;-6.4;67.1
61880;BME280;47817;52.798;27.544;2023-02-23T04:51:10;1031.8;;;-6.3;67.2
61880;BME280;47817;52.798;27.544;2023-02-23T04:56:42;1031.9;;;-6.4;67.5
61880;BME280;47817;52.798;27.544;2023-02-23T05:01:10;1031.9;;;-6.4;67.6
61880;BME280;47817;52.798;27.544;2023-02-23T05:06:40;1031.9;;;-6.4;67.6
61880;BME280;47817;52.798;27.544;2023-02-23T05:11:30;1031.9;;;-6.4;67.5
61880;BME280;47817;52.798;27.544;2023-02-23T05:16:10;1032;;;-6.4;67.5
61880;BME280;47817;52.798;27.544;2023-02-23T05:21:42;1032;;;-6.4;67.7
61880;BME280;47817;52.798;27.544;2023-02-23T05:26:20;1032;;;-6.3;68
61880;BME280;47817;52.798;27.544;2023-02-23T05:31:54;1032;;;-6.3;68
61880;BME280;47817;52.798;27.544;2023-02-23T05:36:11;1032.1;;;-6.2;68.1
61880;BME280;47817;52.798;27.544;2023-02-23T05:41:21;1032.1;;;-6.2;68.2
61880;BME280;47817;52.798;27.544;2023-02-23T05:46:43;1032.2;;;-6;68.2
61880;BME280;47817;52.798;27.544;2023-02-23T05:51:20;1032.2;;;-5.9;67.8
61880;BME280;47817;52.798;27.544;2023-02-23T05:56:56;1032.2;;;-5.8;67.3
61880;BME280;47817;52.798;27.544;2023-02-23T06:01:34;1032.1;;;-5.7;67.1
61880;BME280;47817;52.798;27.544;2023-02-23T06:06:23;1032.1;;;-5.6;66.9
61880;BME280;47817;52.798;27.544;2023-02-23T06:11:42;1032.2;;;-5.4;66.8
61880;BME280;47817;52.798;27.544;2023-02-23T06:16:20;1032.1;;;-5.3;66.7
61880;BME280;47817;52.798;27.544;2023-02-23T06:21:56;1032.2;;;-5.2;66.5
61880;BME280;47817;52.798;27.544;2023-02-23T06:26:22;1032.2;;;-5.1;66.3
61880;BME280;47817;52.798;27.544;2023-02-23T06:31:10;1032.2;;;-5;66
61880;BME280;47817;52.798;27.544;2023-02-23T06:36:44;1032.1;;;-5;65.7
61880;BME280;47817;52.798;27.544;2023-02-23T06:41:34;1032.1;;;-4.9;65.2
61880;BME280;47817;52.798;27.544;2023-02-23T06:47:02;1032.1;;;-4.8;64.8
61880;BME280;47817;52.798;27.544;2023-02-23T06:51:20;1032.1;;;-4.7;64.5
61880;BME280;47817;52.798;27.544;2023-02-23T06:56:34;1032.1;;;-4.5;64.1
61880;BME280;47817;52.798;27.544;2023-02-23T07:01:42;1032.2;;;-4.4;63.9
61880;BME280;47817;52.798;27.544;2023-02-23T07:06:11;1032.2;;;-4.2;63.7
61880;BME280;47817;52.798;27.544;2023-02-23T07:12:00;1032.3;;;-4.1;63.2
61880;BME280;47817;52.798;27.544;2023-02-23T07:16:34;1032.3;;;-3.9;62.6
61880;BME280;47817;52.798;27.544;2023-02-23T07:21:10;1032.3;;;-3.7;62.4
61880;BME280;47817;52.798;27.544;2023-02-23T07:26:50;1032.3;;;-3.5;61.6
61880;BME280;47817;52.798;27.544;2023-02-23T07:31:10;1032.3;;;-3.4;61.4
61880;BME280;47817;52.798;27.544;2023-02-23T07:37:02;1032.3;;;-3.2;60.8
61880;BME280;47817;52.798;27.544;2023-02-23T07:41:34;1032.3;;;-3;60.5
61880;BME280;47817;52.798;27.544;2023-02-23T07:46:38;1032.2;;;-2.8;60.2
61880;BME280;47817;52.798;27.544;2023-02-23T07:51:37;1032.2;;;-2.6;60.5
61880;BME280;47817;52.798;27.544;2023-02-23T07:56:11;1032.2;;;-2.6;60.6
61880;BME280;47817;52.798;27.544;2023-02-23T08:01:58;1032.1;;;-2.5;60.1
61880;BME280;47817;52.798;27.544;2023-02-23T08:06:22;1032.1;;;-2.5;59.9
61880;BME280;47817;52.798;27.544;2023-02-23T08:11:20;1032.1;;;-2.4;59.2
61880;BME280;47817;52.798;27.544;2023-02-23T08:16:44;1032.1;;;-2.2;59
61880;BME280;47817;52.798;27.544;2023-02-23T08:21:10;1032;;;-2;58.9
61880;BME280;47817;52.798;27.544;2023-02-23T08:27:00;1032;;;-1.8;59
61880;BME280;47817;52.798;27.544;2023-02-23T08:31:22;1031.9;;;-1.6;58.3
61880;BME280;47817;52.798;27.544;2023-02-23T08:36:36;1031.9;;;-1.3;58
61880;BME280;47817;52.798;27.544;2023-02-23T08:41:44;1031.9;;;-1.2;57.9
61880;BME280;47817;52.798;27.544;2023-02-23T08:46:12;1031.9;;;-1;57.1
61880;BME280;47817;52.798;27.544;2023-02-23T08:52:00;1031.9;;;-0.8;56.9
61880;BME280;47817;52.798;27.544;2023-02-23T08:56:34;1031.9;;;-0.6;56.2
61880;BME280;47817;52.798;27.544;2023-02-23T09:01:56;1032;;;-0.3;55.9
61880;BME280;47817;52.798;27.544;2023-02-23T09:06:42;1031.9;;;-0.2;55.7
61880;BME280;47817;52.798;27.544;2023-02-23T09:11:20;1031.8;;;0.1;55.7
61880;BME280;47817;52.798;27.544;2023-02-23T09:16:58;1031.8;;;0.2;55.2
61880;BME280;47817;52.798;27.544;2023-02-23T09:21:20;1031.8;;;0.4;55.1
61880;BME280;47817;52.798;27.544;2023-02-23T09:26:56;1031.7;;;0.4;54.4
61880;BME280;47817;52.798;27.544;2023-02-23T09:31:44;1031.7;;;0.3;54.1
61880;BME280;47817;52.798;27.544;2023-02-23T09:36:11;1031.6;;;0.4;53.5
61880;BME280;47817;52.798;27.544;2023-02-23T09:42:08;1031.6;;;0.5;53.5
61880;BME280;47817;52.798;27.544;2023-02-23T09:46:33;1031.5;;;0.6;53.4
61880;BME280;47817;52.798;27.544;2023-02-23T09:51:58;1031.5;;;0.8;53.1
61880;BME280;47817;52.798;27.544;2023-02-23T09:56:31;1031.4;;;0.9;52.7
61880;BME280;47817;52.798;27.544;2023-02-23T10:01:22;1031.4;;;1;52.6
61880;BME280;47817;52.798;27.544;2023-02-23T10:06:47;1031.4;;;1.1;52.1
61880;BME280;47817;52.798;27.544;2023-02-23T10:11:33;1031.3;;;1.1;51.9
61880;BME280;47817;52.798;27.544;2023-02-23T10:17:05;1031.3;;;1.2;51.6
61880;BME280;47817;52.798;27.544;2023-02-23T10:21:43;1031.2;;;1.3;51
61880;BME280;47817;52.798;27.544;2023-02-23T10:26:11;1031.1;;;1.5;50.5
61880;BME280;47817;52.798;27.544;2023-02-23T10:31:57;1031;;;1.5;50.2
61880;BME280;47817;52.798;27.544;2023-02-23T10:36:25;1031;;;1.7;49.8
61880;BME280;47817;52.798;27.544;2023-02-23T10:41:57;1030.9;;;1.8;49.9
61880;BME280;47817;52.798;27.544;2023-02-23T10:46:45;1030.9;;;2.1;49.7
61880;BME280;47817;52.798;27.544;2023-02-23T10:51:23;1030.9;;;2.3;49.4
61880;BME280;47817;52.798;27.544;2023-02-23T10:56:54;1030.9;;;2.3;49.4
61880;BME280;47817;52.798;27.544;2023-02-23T11:11:54;1030.7;;;1.4;47.2
61880;BME280;47817;52.798;27.544;2023-02-23T11:16:37;1030.6;;;1.8;47
61880;BME280;47817;52.798;27.544;2023-02-23T11:21:58;1030.5;;;2.3;47.4
61880;BME280;47817;52.798;27.544;2023-02-23T11:26:37;1030.3;;;3;46.5
61880;BME280;47817;52.798;27.544;2023-02-23T11:31:58;1030.3;;;3.6;45.3
61880;BME280;47817;52.798;27.544;2023-02-23T11:36:44;1030.2;;;4.2;44.9
61880;BME280;47817;52.798;27.544;2023-02-23T11:41:19;1030.1;;;4.8;44.3
61880;BME280;47817;52.798;27.544;2023-02-23T11:47:02;1030.1;;;5.1;44.5
61880;BME280;47817;52.798;27.544;2023-02-23T11:51:37;1030.1;;;5.3;43.7
61880;BME280;47817;52.798;27.544;2023-02-23T11:57:01;1030;;;5.2;44.2
61880;BME280;47817;52.798;27.544;2023-02-23T12:01:34;1030;;;5.3;44.2
61880;BME280;47817;52.798;27.544;2023-02-23T12:06:24;1029.8;;;5.3;43.9
61880;BME280;47817;52.798;27.544;2023-02-23T12:11:59;1029.9;;;5.2;43.7
61880;BME280;47817;52.798;27.544;2023-02-23T12:16:36;1029.9;;;5.1;43.1
61880;BME280;47817;52.798;27.544;2023-02-23T12:21:52;1029.8;;;5;43
61880;BME280;47817;52.798;27.544;2023-02-23T12:26:43;1029.7;;;5;43.3
61880;BME280;47817;52.798;27.544;2023-02-23T12:31:15;1029.6;;;4.8;43.1
61880;BME280;47817;52.798;27.544;2023-02-23T12:37:02;1029.6;;;4.8;42.6
61880;BME280;47817;52.798;27.544;2023-02-23T12:41:36;1029.5;;;4.6;42.4
61880;BME280;47817;52.798;27.544;2023-02-23T12:47:00;1029.4;;;4.5;42
61880;BME280;47817;52.798;27.544;2023-02-23T12:51:46;1029.4;;;4.5;41.9
61880;BME280;47817;52.798;27.544;2023-02-23T12:56:38;1029.3;;;4.3;41.9
61880;BME280;47817;52.798;27.544;2023-02-23T13:02:01;1029.3;;;4.2;42.2
61880;BME280;47817;52.798;27.544;2023-02-23T13:06:11;1029.3;;;4;41.7
61880;BME280;47817;52.798;27.544;2023-02-23T13:12:05;1029.2;;;4;41.7
61880;BME280;47817;52.798;27.544;2023-02-23T13:16:46;1029.1;;;4;41.6
61880;BME280;47817;52.798;27.544;2023-02-23T13:21:12;1029;;;3.8;41.3
61880;BME280;47817;52.798;27.544;2023-02-23T13:27:04;1029;;;3.6;41.5
61880;BME280;47817;52.798;27.544;2023-02-23T13:31:35;1028.9;;;3.4;41.5
61880;BME280;47817;52.798;27.544;2023-02-23T13:36:59;1028.8;;;3.3;41.6
61880;BME280;47817;52.798;27.544;2023-02-23T13:41:34;1028.8;;;3.1;41.8
61880;BME280;47817;52.798;27.544;2023-02-23T13:46:25;1028.8;;;3;41.9
61880;BME280;47817;52.798;27.544;2023-02-23T13:52:01;1028.7;;;2.8;41.8
61880;BME280;47817;52.798;27.544;2023-02-23T13:56:35;1028.6;;;2.7;42.1
61880;BME280;47817;52.798;27.544;2023-02-23T14:01:59;1028.5;;;2.5;42.1
61880;BME280;47817;52.798;27.544;2023-02-23T14:06:52;1028.5;;;2.5;41.9
61880;BME280;47817;52.798;27.544;2023-02-23T14:11:26;1028.5;;;2.5;41.7
61880;BME280;47817;52.798;27.544;2023-02-23T14:17:08;1028.3;;;2.5;41.7
61880;BME280;47817;52.798;27.544;2023-02-23T14:21:40;1028.2;;;2.5;41.7
61880;BME280;47817;52.798;27.544;2023-02-23T14:27:17;1028.1;;;2.5;41.8
61880;BME280;47817;52.798;27.544;2023-02-23T14:31:29;1028.1;;;2.4;41.7
61880;BME280;47817;52.798;27.544;2023-02-23T14:36:26;1028;;;2.2;41.6
61880;BME280;47817;52.798;27.544;2023-02-23T14:42:00;1028;;;2.1;41.5
61880;BME280;47817;52.798;27.544;2023-02-23T14:46:34;1027.9;;;1.9;41.5
61880;BME280;47817;52.798;27.544;2023-02-23T14:52:04;1027.8;;;1.9;41.5
61880;BME280;47817;52.798;27.544;2023-02-23T14:56:32;1027.8;;;1.8;41.6
61880;BME280;47817;52.798;27.544;2023-02-23T15:01:38;1027.7;;;1.8;41.6
61880;BME280;47817;52.798;27.544;2023-02-23T15:07:00;1027.6;;;1.6;41.9
61880;BME280;47817;52.798;27.544;2023-02-23T15:11:11;1027.6;;;1.5;42.3
61880;BME280;47817;52.798;27.544;2023-02-23T15:16:58;1027.6;;;1.3;42.5
61880;BME280;47817;52.798;27.544;2023-02-23T15:21:30;1027.5;;;1;42.7
61880;BME280;47817;52.798;27.544;2023-02-23T15:27:01;1027.4;;;0.8;43.1
61880;BME280;47817;52.798;27.544;2023-02-23T15:32:17;1027.3;;;0.6;43.5
61880;BME280;47817;52.798;27.544;2023-02-23T15:36:36;1027.2;;;0.4;43.9
61880;BME280;47817;52.798;27.544;2023-02-23T15:42:01;1027.2;;;0.2;44.3
61880;BME280;47817;52.798;27.544;2023-02-23T15:46:44;1027.1;;;0.1;44.6
61880;BME280;47817;52.798;27.544;2023-02-23T15:51:39;1027;;;-0.1;44.9
61880;BME280;47817;52.798;27.544;2023-02-23T15:57:01;1026.9;;;-0.2;45.2
61880;BME280;47817;52.798;27.544;2023-02-23T16:01:38;1026.9;;;-0.3;45.4
61880;BME280;47817;52.798;27.544;2023-02-23T16:07:06;1026.9;;;-0.4;45.8
61880;BME280;47817;52.798;27.544;2023-02-23T16:11:47;1026.8;;;-0.5;46
61880;BME280;47817;52.798;27.544;2023-02-23T16:16:11;1026.8;;;-0.5;46.3
61880;BME280;47817;52.798;27.544;2023-02-23T16:22:02;1026.8;;;-0.6;46.6
61880;BME280;47817;52.798;27.544;2023-02-23T16:26:35;1026.7;;;-0.7;46.8
61880;BME280;47817;52.798;27.544;2023-02-23T16:32:08;1026.7;;;-0.8;47.4
61880;BME280;47817;52.798;27.544;2023-02-23T16:36:48;1026.6;;;-0.8;47.7
61880;BME280;47817;52.798;27.544;2023-02-23T16:41:12;1026.5;;;-0.8;48
61880;BME280;47817;52.798;27.544;2023-02-23T16:47:33;1026.5;;;-0.9;48.3
61880;BME280;47817;52.798;27.544;2023-02-23T16:51:12;1026.5;;;-0.9;48.6
61880;BME280;47817;52.798;27.544;2023-02-23T16:57:02;1026.4;;;-0.9;48.7
61880;BME280;47817;52.798;27.544;2023-02-23T17:01:30;1026.3;;;-0.9;48.8
61880;BME280;47817;52.798;27.544;2023-02-23T17:06:22;1026.2;;;-0.9;49
61880;BME280;47817;52.798;27.544;2023-02-23T17:12:03;1026.2;;;-0.9;49.1
61880;BME280;47817;52.798;27.544;2023-02-23T17:16:11;1026.1;;;-0.9;49.2
61880;BME280;47817;52.798;27.544;2023-02-23T17:22:02;1026;;;-0.9;49.3
61880;BME280;47817;52.798;27.544;2023-02-23T17:26:44;1025.9;;;-0.9;49.4
61880;BME280;47817;52.798;27.544;2023-02-23T17:31:32;1025.8;;;-1;49.6
61880;BME280;47817;52.798;27.544;2023-02-23T17:36:44;1025.8;;;-1;49.7
61880;BME280;47817;52.798;27.544;2023-02-23T17:41:23;1025.7;;;-0.9;49.9
61880;BME280;47817;52.798;27.544;2023-02-23T17:47:02;1025.7;;;-0.9;49.9
61880;BME280;47817;52.798;27.544;2023-02-23T17:52:03;1025.6;;;-0.9;50
61880;BME280;47817;52.798;27.544;2023-02-23T17:56:58;1025.5;;;-0.9;50
61880;BME280;47817;52.798;27.544;2023-02-23T18:01:42;1025.4;;;-0.9;50
61880;BME280;47817;52.798;27.544;2023-02-23T18:06:22;1025.3;;;-0.9;50.1
61880;BME280;47817;52.798;27.544;2023-02-23T18:11:59;1025.3;;;-0.9;50.1
61880;BME280;47817;52.798;27.544;2023-02-23T18:16:59;1025.2;;;-0.9;50.2
61880;BME280;47817;52.798;27.544;2023-02-23T18:21:22;1025.1;;;-0.9;50.2
61880;BME280;47817;52.798;27.544;2023-02-23T18:26:31;1025;;;-0.9;50.2
61880;BME280;47817;52.798;27.544;2023-02-23T18:31:36;1025;;;-0.9;50.2
61880;BME280;47817;52.798;27.544;2023-02-23T18:37:01;1024.9;;;-0.9;50.2
61880;BME280;47817;52.798;27.544;2023-02-23T18:41:44;1024.8;;;-0.8;50.2
61880;BME280;47817;52.798;27.544;2023-02-23T18:46:23;1024.8;;;-0.8;50.2
61880;BME280;47817;52.798;27.544;2023-02-23T18:51:47;1024.7;;;-0.7;50.1
61880;BME280;47817;52.798;27.544;2023-02-23T18:56:21;1024.6;;;-0.6;50.1
61880;BME280;47817;52.798;27.544;2023-02-23T19:02:01;1024.5;;;-0.6;50.1
61880;BME280;47817;52.798;27.544;2023-02-23T19:06:44;1024.5;;;-0.5;50.1
61880;BME280;47817;52.798;27.544;2023-02-23T19:11:26;1024.4;;;-0.4;50.2
61880;BME280;47817;52.798;27.544;2023-02-23T19:16:46;1024.4;;;-0.4;50.2
61880;BME280;47817;52.798;27.544;2023-02-23T19:21:23;1024.3;;;-0.4;50.3
61880;BME280;47817;52.798;27.544;2023-02-23T19:27:00;1024.2;;;-0.4;50.4
61880;BME280;47817;52.798;27.544;2023-02-23T19:31:42;1024.1;;;-0.4;50.5
61880;BME280;47817;52.798;27.544;2023-02-23T19:36:25;1024.1;;;-0.5;50.7
61880;BME280;47817;52.798;27.544;2023-02-23T19:41:44;1024;;;-0.4;50.9
61880;BME280;47817;52.798;27.544;2023-02-23T19:46:37;1023.9;;;-0.4;51
61880;BME280;47817;52.798;27.544;2023-02-23T19:52:03;1023.9;;;-0.3;51
61880;BME280;47817;52.798;27.544;2023-02-23T19:56:46;1023.8;;;-0.2;51.1
61880;BME280;47817;52.798;27.544;2023-02-23T20:01:12;1023.8;;;-0.2;51.2
61880;BME280;47817;52.798;27.544;2023-02-23T20:06:44;1023.7;;;-0.1;51.3
61880;BME280;47817;52.798;27.544;2023-02-23T20:11:34;1023.6;;;-0.1;51.5
61880;BME280;47817;52.798;27.544;2023-02-23T20:16:58;1023.5;;;-0.1;51.6
61880;BME280;47817;52.798;27.544;2023-02-23T20:21:44;1023.4;;;0;51.7
61880;BME280;47817;52.798;27.544;2023-02-23T20:26:23;1023.3;;;0;51.8
61880;BME280;47817;52.798;27.544;2023-02-23T20:31:48;1023.2;;;0;51.9
61880;BME280;47817;52.798;27.544;2023-02-23T20:36:10;1023.1;;;0;52.1
61880;BME280;47817;52.798;27.544;2023-02-23T20:42:00;1023;;;0;52.4
61880;BME280;47817;52.798;27.544;2023-02-23T20:46:45;1022.8;;;0.1;52.6
61880;BME280;47817;52.798;27.544;2023-02-23T20:51:11;1022.8;;;0.1;52.8
61880;BME280;47817;52.798;27.544;2023-02-23T20:56:44;1022.7;;;0.1;52.9
61880;BME280;47817;52.798;27.544;2023-02-23T21:01:37;1022.6;;;0.2;53
61880;BME280;47817;52.798;27.544;2023-02-23T21:07:02;1022.5;;;0.2;53.3
61880;BME280;47817;52.798;27.544;2023-02-23T21:11:47;1022.4;;;0.2;53.5
61880;BME280;47817;52.798;27.544;2023-02-23T21:16:24;1022.3;;;0.2;53.7
61880;BME280;47817;52.798;27.544;2023-02-23T21:22:02;1022.2;;;0.2;53.9
61880;BME280;47817;52.798;27.544;2023-02-23T21:26:36;1022.2;;;0.2;54.2
61880;BME280;47817;52.798;27.544;2023-02-23T21:32:02;1022;;;0.2;54.5
61880;BME280;47817;52.798;27.544;2023-02-23T21:37:02;1021.9;;;0.4;54.6
61880;BME280;47817;52.798;27.544;2023-02-23T21:41:11;1021.9;;;0.3;54.9
61880;BME280;47817;52.798;27.544;2023-02-23T21:46:47;1021.7;;;0.3;55.1
61880;BME280;47817;52.798;27.544;2023-02-23T21:51:22;1021.6;;;0.3;55.2
61880;BME280;47817;52.798;27.544;2023-02-23T21:57:03;1021.6;;;0.3;55.3
61880;BME280;47817;52.798;27.544;2023-02-23T22:01:42;1021.5;;;0.4;55.4
61880;BME280;47817;52.798;27.544;2023-02-23T22:06:40;1021.4;;;0.4;55.5
61880;BME280;47817;52.798;27.544;2023-02-23T22:11:45;1021.4;;;0.5;55.6
61880;BME280;47817;52.798;27.544;2023-02-23T22:16:37;1021.3;;;0.5;55.7
61880;BME280;47817;52.798;27.544;2023-02-23T22:22:02;1021.3;;;0.6;56
61880;BME280;47817;52.798;27.544;2023-02-23T22:26:45;1021.2;;;0.6;56.2
61880;BME280;47817;52.798;27.544;2023-02-23T22:31:22;1021.1;;;0.7;56.3
61880;BME280;47817;52.798;27.544;2023-02-23T22:36:45;1021;;;0.7;56.5
61880;BME280;47817;52.798;27.544;2023-02-23T22:41:27;1020.9;;;0.7;56.5
61880;BME280;47817;52.798;27.544;2023-02-23T22:47:00;1020.8;;;0.7;56.7
61880;BME280;47817;52.798;27.544;2023-02-23T22:51:44;1020.7;;;0.6;57
61880;BME280;47817;52.798;27.544;2023-02-23T22:56:10;1020.6;;;0.6;57.2
61880;BME280;47817;52.798;27.544;2023-02-23T23:02:00;1020.5;;;0.5;57.2
61880;BME280;47817;52.798;27.544;2023-02-23T23:06:26;1020.4;;;0.5;57.6
61880;BME280;47817;52.798;27.544;2023-02-23T23:12:00;1020.2;;;0.4;57.7
61880;BME280;47817;52.798;27.544;2023-02-23T23:16:46;1020.1;;;0.4;57.9
61880;BME280;47817;52.798;27.544;2023-02-23T23:21:11;1020;;;0.4;58.1
61880;BME280;47817;52.798;27.544;2023-02-23T23:26:34;1019.9;;;0.4;58.4
61880;BME280;47817;52.798;27.544;2023-02-23T23:31:35;1019.8;;;0.3;58.8
61880;BME280;47817;52.798;27.544;2023-02-23T23:37:03;1019.7;;;0.3;59
61880;BME280;47817;52.798;27.544;2023-02-23T23:41:47;1019.6;;;0.4;59.2
61880;BME280;47817;52.798;27.544;2023-02-23T23:46:11;1019.6;;;0.4;59.5
61880;BME280;47817;52.798;27.544;2023-02-23T23:51:47;1019.5;;;0.4;59.9
61880;BME280;47817;52.798;27.544;2023-02-23T23:56:36;1019.4;;;0.4;60.1
